createdAt,value
2022-07-25T00:00:45.668Z,19.84
2022-07-25T00:03:14.092Z,19.66
2022-07-25T00:05:45.665Z,19.56
2022-07-25T00:08:12.722Z,19.52
2022-07-25T00:10:39.756Z,19.63
2022-07-25T00:13:06.878Z,19.58
2022-07-25T00:15:34.055Z,19.62
2022-07-25T00:18:02.201Z,19.55
2022-07-25T00:20:30.938Z,19.43
2022-07-25T00:23:08.299Z,19.41
2022-07-25T00:25:35.424Z,19.33
2022-07-25T00:28:02.501Z,19.20
2022-07-25T00:30:29.587Z,19.33
2022-07-25T00:32:56.677Z,19.22
2022-07-25T00:35:23.802Z,19.20
2022-07-25T00:37:50.845Z,19.26
2022-07-25T00:40:17.909Z,19.21
2022-07-25T00:42:44.946Z,19.21
2022-07-25T00:45:11.985Z,19.22
2022-07-25T00:47:39.068Z,19.13
2022-07-25T00:50:06.603Z,19.09
2022-07-25T00:52:35.273Z,19.05
2022-07-25T00:55:02.451Z,19.11
2022-07-25T00:57:29.502Z,18.94
2022-07-25T00:59:56.548Z,18.96
2022-07-25T01:02:23.651Z,19.00
2022-07-25T01:04:51.243Z,18.83
2022-07-25T01:07:18.406Z,18.87
2022-07-25T01:09:45.825Z,18.81
2022-07-25T01:12:12.860Z,18.76
2022-07-25T01:14:39.965Z,18.72
2022-07-25T01:17:07.011Z,18.78
2022-07-25T01:19:34.077Z,18.74
2022-07-25T01:22:01.159Z,18.77
2022-07-25T01:24:29.158Z,18.71
2022-07-25T01:26:56.225Z,18.75
2022-07-25T01:29:23.275Z,18.61
2022-07-25T01:31:50.317Z,18.67
2022-07-25T01:34:17.391Z,18.62
2022-07-25T01:36:44.477Z,18.54
2022-07-25T01:39:11.608Z,18.41
2022-07-25T01:41:38.691Z,18.45
2022-07-25T01:44:06.069Z,18.38
2022-07-25T01:46:33.440Z,18.42
2022-07-25T01:49:00.639Z,18.33
2022-07-25T01:51:27.731Z,18.11
2022-07-25T01:53:54.752Z,18.29
2022-07-25T01:56:22.519Z,18.20
2022-07-25T01:58:49.683Z,18.18
2022-07-25T02:01:16.781Z,18.21
2022-07-25T02:03:46.396Z,17.98
2022-07-25T02:06:13.436Z,18.25
2022-07-25T02:08:40.485Z,18.16
2022-07-25T02:11:07.527Z,18.11
2022-07-25T02:13:34.605Z,17.99
2022-07-25T02:16:01.638Z,17.99
2022-07-25T02:18:29.456Z,17.91
2022-07-25T02:20:56.483Z,17.92
2022-07-25T02:23:23.571Z,17.81
2022-07-25T02:25:50.587Z,17.89
2022-07-25T02:28:18.115Z,18.00
2022-07-25T02:30:45.299Z,17.81
2022-07-25T02:33:12.366Z,17.75
2022-07-25T02:35:39.403Z,17.72
2022-07-25T02:38:07.138Z,17.72
2022-07-25T02:40:34.230Z,17.73
2022-07-25T02:43:01.353Z,17.75
2022-07-25T02:45:28.427Z,17.77
2022-07-25T02:47:55.445Z,17.61
2022-07-25T02:50:23.779Z,17.62
2022-07-25T02:52:50.816Z,17.60
2022-07-25T02:55:17.887Z,17.54
2022-07-25T02:57:44.905Z,17.63
2022-07-25T03:00:12.855Z,17.59
2022-07-25T03:02:40.169Z,17.46
2022-07-25T03:05:14.495Z,17.15
2022-07-25T03:07:43.369Z,17.42
2022-07-25T03:10:12.196Z,17.52
2022-07-25T03:12:40.693Z,17.24
2022-07-25T03:15:09.080Z,17.21
2022-07-25T03:17:36.525Z,17.32
2022-07-25T03:20:08.298Z,17.35
2022-07-25T03:22:35.849Z,17.38
2022-07-25T03:25:03.849Z,17.42
2022-07-25T03:27:31.274Z,17.24
2022-07-25T03:29:58.400Z,17.33
2022-07-25T03:32:26.553Z,17.33
2022-07-25T03:34:53.670Z,17.14
2022-07-25T03:37:21.780Z,17.32
2022-07-25T03:39:49.101Z,17.41
2022-07-25T03:42:16.230Z,17.40
2022-07-25T03:44:43.291Z,17.14
2022-07-25T03:47:10.310Z,17.15
2022-07-25T03:49:47.830Z,17.16
2022-07-25T03:52:14.861Z,17.22
2022-07-25T03:54:41.895Z,17.28
2022-07-25T03:57:08.937Z,17.29
2022-07-25T03:59:35.971Z,17.29
2022-07-25T04:02:03.016Z,17.31
2022-07-25T04:04:30.421Z,16.85
2022-07-25T04:06:57.495Z,17.18
2022-07-25T04:09:24.573Z,17.11
2022-07-25T04:11:51.618Z,17.22
2022-07-25T04:14:18.748Z,16.99
2022-07-25T04:16:45.841Z,17.29
2022-07-25T04:19:13.021Z,17.05
2022-07-25T04:21:40.219Z,17.20
2022-07-25T04:24:07.811Z,17.13
2022-07-25T04:26:35.077Z,17.14
2022-07-25T04:29:03.647Z,17.22
2022-07-25T04:31:30.978Z,16.99
2022-07-25T04:33:58.107Z,17.26
2022-07-25T04:36:26.530Z,17.07
2022-07-25T04:38:53.665Z,17.36
2022-07-25T04:41:20.740Z,17.57
2022-07-25T04:43:48.868Z,17.55
2022-07-25T04:46:20.690Z,17.46
2022-07-25T04:48:48.902Z,17.77
2022-07-25T04:51:17.048Z,17.77
2022-07-25T04:53:44.502Z,17.82
2022-07-25T04:56:11.623Z,17.73
2022-07-25T04:58:38.947Z,17.95
2022-07-25T05:01:06.284Z,18.03
2022-07-25T05:03:33.385Z,18.04
2022-07-25T05:06:00.463Z,18.01
2022-07-25T05:08:27.571Z,18.09
2022-07-25T05:10:54.632Z,17.97
2022-07-25T05:13:21.649Z,18.25
2022-07-25T05:15:48.724Z,18.47
2022-07-25T05:18:15.782Z,18.66
2022-07-25T05:20:42.809Z,18.71
2022-07-25T05:23:09.864Z,18.75
2022-07-25T05:25:36.882Z,18.79
2022-07-25T05:28:04.145Z,18.81
2022-07-25T05:30:32.695Z,18.81
2022-07-25T05:33:01.391Z,18.98
2022-07-25T05:35:28.585Z,19.14
2022-07-25T05:37:55.768Z,19.23
2022-07-25T05:40:23.042Z,19.43
2022-07-25T05:42:50.090Z,19.64
2022-07-25T05:45:17.151Z,19.70
2022-07-25T05:47:44.216Z,19.75
2022-07-25T05:50:11.373Z,19.91
2022-07-25T05:52:38.501Z,19.91
2022-07-25T05:55:06.113Z,20.06
2022-07-25T05:57:35.283Z,20.19
2022-07-25T06:00:05.135Z,20.20
2022-07-25T06:02:32.451Z,20.49
2022-07-25T06:04:59.714Z,20.73
2022-07-25T06:07:26.778Z,20.91
2022-07-25T06:09:53.918Z,21.16
2022-07-25T06:12:20.967Z,21.04
2022-07-25T06:14:51.625Z,20.85
2022-07-25T06:17:18.694Z,21.13
2022-07-25T06:19:45.721Z,21.48
2022-07-25T06:22:13.735Z,21.46
2022-07-25T06:24:42.208Z,21.44
2022-07-25T06:27:09.258Z,21.51
2022-07-25T06:29:37.866Z,21.82
2022-07-25T06:32:05.289Z,21.77
2022-07-25T06:34:32.313Z,22.00
2022-07-25T06:36:59.489Z,22.13
2022-07-25T06:39:28.014Z,22.23
2022-07-25T06:41:55.125Z,22.32
2022-07-25T06:44:22.190Z,22.43
2022-07-25T06:46:49.581Z,22.56
2022-07-25T06:49:18.324Z,22.66
2022-07-25T06:51:45.388Z,22.71
2022-07-25T06:54:14.220Z,22.72
2022-07-25T06:56:41.297Z,23.03
2022-07-25T06:59:08.545Z,23.26
2022-07-25T07:01:35.771Z,23.49
2022-07-25T07:04:04.190Z,23.57
2022-07-25T07:06:31.614Z,23.83
2022-07-25T07:08:58.628Z,24.01
2022-07-25T07:11:25.776Z,24.09
2022-07-25T07:13:52.885Z,24.18
2022-07-25T07:16:20.191Z,24.14
2022-07-25T07:18:49.439Z,24.34
2022-07-25T07:21:21.308Z,24.23
2022-07-25T07:23:49.331Z,24.86
2022-07-25T07:26:21.381Z,24.97
2022-07-25T07:28:48.542Z,25.34
2022-07-25T07:31:18.348Z,25.47
2022-07-25T07:33:45.745Z,25.70
2022-07-25T07:36:12.920Z,25.88
2022-07-25T07:38:40.026Z,25.97
2022-07-25T07:41:07.754Z,25.78
2022-07-25T07:43:35.791Z,26.19
2022-07-25T07:46:03.146Z,26.16
2022-07-25T07:48:31.379Z,26.60
2022-07-25T07:51:00.154Z,26.89
2022-07-25T07:53:48.010Z,27.17
2022-07-25T07:56:16.137Z,27.41
2022-07-25T07:58:43.357Z,27.63
2022-07-25T08:01:10.901Z,28.06
2022-07-25T08:03:37.935Z,28.19
2022-07-25T08:06:05.510Z,28.69
2022-07-25T08:08:32.578Z,28.90
2022-07-25T08:10:59.997Z,29.05
2022-07-25T08:13:30.437Z,29.02
2022-07-25T08:15:59.306Z,29.31
2022-07-25T08:18:29.847Z,29.52
2022-07-25T08:20:57.261Z,29.37
2022-07-25T08:23:25.655Z,29.49
2022-07-25T08:25:52.724Z,29.61
2022-07-25T08:28:20.640Z,29.66
2022-07-25T08:30:47.832Z,29.19
2022-07-25T08:33:17.964Z,29.01
2022-07-25T08:35:54.485Z,28.93
2022-07-25T08:38:22.902Z,29.20
2022-07-25T08:40:50.639Z,29.17
2022-07-25T08:43:19.200Z,29.26
2022-07-25T08:45:48.746Z,29.26
2022-07-25T08:48:20.961Z,29.47
2022-07-25T08:50:48.984Z,29.72
2022-07-25T08:53:35.243Z,29.55
2022-07-25T08:56:13.307Z,29.21
2022-07-25T08:58:44.143Z,29.33
2022-07-25T09:01:12.911Z,29.46
2022-07-25T09:03:41.383Z,29.68
2022-07-25T09:06:19.476Z,29.74
2022-07-25T09:08:55.290Z,29.58
2022-07-25T09:11:37.529Z,29.74
2022-07-25T09:14:11.524Z,29.87
2022-07-25T09:16:44.924Z,29.91
2022-07-25T09:19:21.089Z,30.21
2022-07-25T09:22:03.574Z,30.59
2022-07-25T09:24:32.593Z,30.63
2022-07-25T09:27:02.256Z,30.40
2022-07-25T09:29:34.338Z,30.45
2022-07-25T09:32:13.214Z,30.73
2022-07-25T09:34:42.205Z,31.11
2022-07-25T09:37:12.341Z,31.06
2022-07-25T09:39:46.033Z,31.45
2022-07-25T09:42:17.962Z,31.03
2022-07-25T09:44:56.913Z,31.18
2022-07-25T09:47:24.310Z,31.26
2022-07-25T09:49:52.211Z,30.93
2022-07-25T09:52:19.400Z,30.79
2022-07-25T09:54:46.517Z,30.75
2022-07-25T09:57:13.638Z,30.66
2022-07-25T09:59:40.806Z,30.53
2022-07-25T10:02:32.459Z,30.30
2022-07-25T10:05:14.596Z,30.45
2022-07-25T10:07:50.603Z,30.37
2022-07-25T10:10:32.467Z,30.61
2022-07-25T10:13:10.184Z,30.66
2022-07-25T10:15:42.240Z,31.07
2022-07-25T10:18:10.063Z,31.00
2022-07-25T10:20:37.380Z,31.35
2022-07-25T10:23:05.272Z,31.39
2022-07-25T10:25:33.241Z,30.95
2022-07-25T10:28:08.218Z,31.06
2022-07-25T10:30:39.871Z,31.17
2022-07-25T10:33:21.434Z,31.50
2022-07-25T10:35:48.680Z,31.43
2022-07-25T10:38:24.953Z,31.55
2022-07-25T10:40:52.534Z,31.54
2022-07-25T10:43:21.879Z,31.17
2022-07-25T10:45:58.052Z,30.86
2022-07-25T10:48:37.693Z,30.97
2022-07-25T10:51:14.107Z,31.58
2022-07-25T10:53:47.258Z,31.79
2022-07-25T10:56:17.558Z,31.84
2022-07-25T10:58:54.017Z,31.77
2022-07-25T11:01:27.107Z,31.64
2022-07-25T11:03:57.394Z,31.52
2022-07-25T11:06:39.713Z,32.18
2022-07-25T11:09:23.783Z,31.77
2022-07-25T11:11:56.221Z,31.18
2022-07-25T11:14:31.187Z,31.15
2022-07-25T11:17:09.254Z,30.89
2022-07-25T11:19:36.362Z,30.60
2022-07-25T11:22:04.516Z,30.24
2022-07-25T11:24:43.047Z,29.97
2022-07-25T11:27:13.279Z,29.84
2022-07-25T11:29:41.328Z,29.75
2022-07-25T11:32:11.050Z,29.41
2022-07-25T11:34:43.636Z,29.25
2022-07-25T11:37:12.388Z,29.13
2022-07-25T11:39:41.969Z,29.01
2022-07-25T11:42:18.406Z,28.82
2022-07-25T11:44:49.131Z,28.77
2022-07-25T11:47:30.815Z,28.81
2022-07-25T11:50:00.435Z,28.71
2022-07-25T11:52:32.604Z,28.76
2022-07-25T11:55:11.963Z,28.71
2022-07-25T11:57:41.815Z,29.02
2022-07-25T12:00:15.380Z,29.01
2022-07-25T12:02:42.689Z,29.44
2022-07-25T12:05:12.975Z,29.61
2022-07-25T12:07:47.070Z,29.61
2022-07-25T12:10:18.552Z,29.55
2022-07-25T12:12:56.146Z,29.55
2022-07-25T12:15:27.288Z,29.11
2022-07-25T12:17:56.910Z,29.42
2022-07-25T12:20:38.021Z,29.35
2022-07-25T12:23:09.608Z,29.24
2022-07-25T12:25:42.778Z,29.20
2022-07-25T12:28:11.032Z,29.59
2022-07-25T12:30:39.441Z,29.88
2022-07-25T12:33:06.811Z,29.81
2022-07-25T12:35:34.803Z,30.13
2022-07-25T12:38:01.837Z,30.25
2022-07-25T12:40:29.019Z,30.17
2022-07-25T12:42:57.176Z,30.00
2022-07-25T12:45:24.498Z,29.75
2022-07-25T12:47:51.537Z,29.92
2022-07-25T12:50:18.863Z,30.08
2022-07-25T12:52:46.619Z,30.40
2022-07-25T12:55:16.996Z,30.66
2022-07-25T12:57:44.904Z,30.83
2022-07-25T13:00:15.932Z,31.05
2022-07-25T13:02:43.334Z,31.20
2022-07-25T13:05:11.011Z,31.29
2022-07-25T13:07:38.197Z,31.15
2022-07-25T13:10:06.625Z,30.95
2022-07-25T13:12:33.845Z,30.68
2022-07-25T13:15:01.536Z,30.97
2022-07-25T13:17:28.697Z,31.05
2022-07-25T13:19:56.697Z,31.09
2022-07-25T13:22:24.920Z,30.88
2022-07-25T13:24:53.369Z,30.79
2022-07-25T13:27:22.008Z,30.65
2022-07-25T13:29:54.691Z,30.78
2022-07-25T13:32:22.508Z,31.17
2022-07-25T13:34:49.790Z,31.09
2022-07-25T13:37:17.011Z,31.27
2022-07-25T13:39:44.177Z,31.44
2022-07-25T13:42:11.277Z,31.42
2022-07-25T13:44:38.344Z,30.82
2022-07-25T13:47:05.606Z,31.04
2022-07-25T13:49:32.798Z,30.88
2022-07-25T13:51:59.910Z,30.39
2022-07-25T13:54:27.125Z,30.88
2022-07-25T13:56:54.298Z,31.17
2022-07-25T13:59:22.074Z,31.03
2022-07-25T14:01:49.903Z,30.59
2022-07-25T14:04:17.333Z,30.67
2022-07-25T14:06:44.549Z,30.79
2022-07-25T14:09:11.911Z,30.68
2022-07-25T14:11:39.002Z,30.92
2022-07-25T14:14:06.045Z,31.21
2022-07-25T14:16:34.330Z,31.59
2022-07-25T14:19:02.214Z,31.50
2022-07-25T14:21:30.170Z,31.14
2022-07-25T14:23:57.359Z,31.31
2022-07-25T14:26:25.695Z,30.91
2022-07-25T14:28:52.939Z,30.56
2022-07-25T14:31:21.218Z,30.24
2022-07-25T14:33:48.316Z,30.14
2022-07-25T14:36:15.464Z,30.20
2022-07-25T14:38:42.539Z,30.30
2022-07-25T14:41:13.090Z,30.60
2022-07-25T14:43:41.628Z,30.48
2022-07-25T14:46:08.981Z,30.35
2022-07-25T14:48:37.950Z,30.53
2022-07-25T14:51:05.906Z,30.53
2022-07-25T14:53:34.035Z,30.47
2022-07-25T14:56:03.110Z,30.41
2022-07-25T14:58:30.805Z,30.32
2022-07-25T15:00:57.992Z,30.67
2022-07-25T15:03:25.226Z,30.59
2022-07-25T15:05:52.302Z,30.21
2022-07-25T15:08:19.529Z,30.64
2022-07-25T15:10:47.025Z,30.59
2022-07-25T15:13:30.548Z,31.05
2022-07-25T15:15:59.808Z,30.82
2022-07-25T15:18:27.204Z,30.34
2022-07-25T15:20:55.184Z,30.49
2022-07-25T15:23:24.658Z,29.94
2022-07-25T15:26:01.774Z,29.59
2022-07-25T15:28:34.574Z,29.64
2022-07-25T15:31:02.203Z,29.55
2022-07-25T15:33:29.681Z,29.78
2022-07-25T15:35:56.809Z,30.09
2022-07-25T15:38:23.979Z,30.18
2022-07-25T15:40:55.047Z,29.63
2022-07-25T15:43:22.134Z,29.46
2022-07-25T15:45:49.252Z,29.48
2022-07-25T15:48:17.015Z,30.34
2022-07-25T15:50:47.858Z,31.44
2022-07-25T15:53:15.375Z,30.81
2022-07-25T15:55:43.166Z,30.62
2022-07-25T15:58:11.522Z,31.06
2022-07-25T16:00:40.023Z,30.76
2022-07-25T16:03:07.548Z,30.28
2022-07-25T16:05:34.851Z,29.61
2022-07-25T16:08:02.636Z,29.51
2022-07-25T16:10:31.572Z,29.60
2022-07-25T16:12:58.940Z,30.04
2022-07-25T16:15:26.445Z,29.91
2022-07-25T16:18:00.105Z,29.98
2022-07-25T16:20:31.837Z,29.35
2022-07-25T16:23:00.315Z,28.56
2022-07-25T16:25:28.510Z,28.44
2022-07-25T16:27:56.351Z,28.09
2022-07-25T16:30:23.705Z,28.19
2022-07-25T16:32:50.879Z,28.14
2022-07-25T16:35:18.139Z,27.80
2022-07-25T16:37:45.255Z,27.90
2022-07-25T16:40:12.624Z,28.06
2022-07-25T16:42:39.816Z,28.16
2022-07-25T16:45:07.490Z,28.61
2022-07-25T16:47:34.768Z,28.27
2022-07-25T16:50:01.862Z,28.09
2022-07-25T16:52:28.936Z,28.49
2022-07-25T16:54:55.999Z,28.46
2022-07-25T16:57:25.025Z,28.90
2022-07-25T16:59:53.446Z,28.29
2022-07-25T17:02:26.217Z,27.94
2022-07-25T17:04:56.624Z,27.52
2022-07-25T17:07:23.985Z,27.44
2022-07-25T17:09:51.428Z,27.36
2022-07-25T17:12:19.159Z,27.02
2022-07-25T17:14:46.469Z,26.96
2022-07-25T17:17:13.699Z,26.79
2022-07-25T17:19:40.853Z,26.74
2022-07-25T17:22:09.646Z,26.69
2022-07-25T17:24:37.699Z,26.44
2022-07-25T17:27:07.766Z,26.41
2022-07-25T17:29:34.926Z,26.19
2022-07-25T17:32:02.277Z,26.12
2022-07-25T17:34:29.339Z,26.12
2022-07-25T17:36:57.245Z,26.16
2022-07-25T17:39:25.491Z,26.19
2022-07-25T17:41:52.641Z,26.07
2022-07-25T17:44:20.344Z,26.13
2022-07-25T17:46:49.872Z,26.28
2022-07-25T17:49:17.063Z,25.95
2022-07-25T17:51:44.334Z,26.10
2022-07-25T17:54:11.969Z,25.86
2022-07-25T17:56:39.318Z,25.60
2022-07-25T17:59:08.346Z,26.22
2022-07-25T18:01:35.694Z,26.40
2022-07-25T18:04:03.597Z,26.15
2022-07-25T18:06:30.881Z,26.11
2022-07-25T18:08:57.928Z,25.99
2022-07-25T18:11:25.135Z,25.83
2022-07-25T18:13:52.197Z,25.76
2022-07-25T18:16:19.345Z,25.54
2022-07-25T18:18:46.586Z,25.26
2022-07-25T18:21:13.637Z,25.39
2022-07-25T18:23:40.691Z,25.23
2022-07-25T18:26:08.907Z,24.99
2022-07-25T18:28:36.240Z,25.03
2022-07-25T18:31:04.402Z,25.12
2022-07-25T18:33:31.661Z,24.94
2022-07-25T18:35:59.479Z,24.62
2022-07-25T18:38:28.844Z,24.85
2022-07-25T18:41:12.565Z,24.77
2022-07-25T18:43:43.077Z,24.75
2022-07-25T18:46:12.866Z,24.53
2022-07-25T18:48:42.311Z,24.53
2022-07-25T18:51:09.587Z,24.45
2022-07-25T18:53:37.164Z,24.33
2022-07-25T18:56:05.763Z,24.36
2022-07-25T18:58:33.246Z,24.15
2022-07-25T19:04:48.093Z,24.09
2022-07-25T19:07:15.207Z,23.84
2022-07-25T19:09:42.229Z,23.89
2022-07-25T19:12:10.199Z,23.72
2022-07-25T19:14:37.234Z,23.80
2022-07-25T19:17:04.494Z,23.50
2022-07-25T19:19:31.716Z,23.64
2022-07-25T19:21:58.825Z,23.63
2022-07-25T19:24:25.928Z,23.42
2022-07-25T19:26:53.125Z,23.01
2022-07-25T19:29:20.916Z,23.06
2022-07-25T19:31:48.121Z,23.04
2022-07-25T19:34:15.175Z,23.07
2022-07-25T19:36:45.736Z,22.86
2022-07-25T19:39:13.158Z,22.87
2022-07-25T19:41:46.172Z,22.93
2022-07-25T19:44:14.249Z,22.89
2022-07-25T19:46:41.363Z,22.82
2022-07-25T19:49:08.735Z,22.86
2022-07-25T19:51:36.126Z,22.91
2022-07-25T19:54:03.655Z,22.83
2022-07-25T19:56:31.594Z,22.66
2022-07-25T19:58:58.638Z,22.51
2022-07-25T20:01:29.941Z,22.58
2022-07-25T20:03:57.155Z,22.48
2022-07-25T20:06:24.753Z,22.63
2022-07-25T20:08:51.943Z,22.59
2022-07-25T20:11:19.321Z,22.29
2022-07-25T20:13:46.405Z,22.18
2022-07-25T20:16:13.507Z,22.26
2022-07-25T20:18:40.533Z,22.26
2022-07-25T20:21:07.880Z,21.52
2022-07-25T20:23:34.934Z,21.94
2022-07-25T20:26:02.385Z,22.01
2022-07-25T20:28:30.072Z,22.12
2022-07-25T20:30:58.485Z,21.85
2022-07-25T20:33:27.081Z,21.84
2022-07-25T20:35:54.885Z,21.67
2022-07-25T20:38:23.090Z,21.70
2022-07-25T20:40:52.219Z,21.69
2022-07-25T20:43:19.374Z,21.58
2022-07-25T20:45:47.547Z,21.54
2022-07-25T20:48:14.782Z,21.64
2022-07-25T20:50:42.430Z,21.49
2022-07-25T20:53:10.131Z,21.68
2022-07-25T20:55:37.288Z,21.41
2022-07-25T20:58:04.918Z,21.53
2022-07-25T21:00:32.332Z,21.40
2022-07-25T21:03:00.294Z,21.38
2022-07-25T21:05:27.879Z,21.30
2022-07-25T21:07:54.998Z,21.41
2022-07-25T21:10:22.323Z,21.48
2022-07-25T21:12:49.490Z,21.06
2022-07-25T21:15:16.977Z,21.13
2022-07-25T21:17:44.341Z,21.43
2022-07-25T21:20:13.332Z,21.19
2022-07-25T21:22:41.309Z,21.03
2022-07-25T21:25:09.092Z,21.07
2022-07-25T21:27:36.765Z,20.93
2022-07-25T21:30:06.675Z,20.93
2022-07-25T21:32:34.162Z,20.62
2022-07-25T21:35:01.373Z,20.70
2022-07-25T21:37:28.555Z,20.64
2022-07-25T21:39:55.547Z,20.67
2022-07-25T21:42:22.593Z,20.27
2022-07-25T21:44:49.643Z,20.58
2022-07-25T21:47:16.696Z,20.55
2022-07-25T21:50:02.196Z,20.51
2022-07-25T21:52:34.718Z,20.47
2022-07-25T21:55:04.061Z,20.45
2022-07-25T21:57:31.463Z,20.50
2022-07-25T21:59:58.516Z,20.43
2022-07-25T22:02:25.940Z,20.37
2022-07-25T22:04:53.096Z,20.50
2022-07-25T22:07:20.393Z,20.56
2022-07-25T22:09:47.430Z,20.64
2022-07-25T22:12:14.949Z,20.50
2022-07-25T22:14:42.110Z,20.62
2022-07-25T22:17:09.399Z,20.49
2022-07-25T22:19:36.501Z,20.40
2022-07-25T22:22:05.707Z,20.23
2022-07-25T22:24:33.312Z,20.14
2022-07-25T22:27:00.495Z,20.09
2022-07-25T22:29:27.565Z,20.30
2022-07-25T22:31:54.676Z,20.12
2022-07-25T22:34:21.779Z,20.21
2022-07-25T22:36:48.895Z,20.40
2022-07-25T22:39:16.794Z,20.26
2022-07-25T22:41:44.347Z,20.41
2022-07-25T22:44:11.454Z,20.44
2022-07-25T22:46:38.608Z,20.33
2022-07-25T22:49:06.011Z,20.27
2022-07-25T22:51:33.621Z,20.47
2022-07-25T22:54:01.273Z,20.48
2022-07-25T22:56:29.258Z,20.55
2022-07-25T22:58:57.144Z,20.23
2022-07-25T23:01:24.755Z,20.62
2022-07-25T23:03:52.144Z,20.66
2022-07-25T23:06:20.785Z,20.70
2022-07-25T23:08:48.938Z,20.58
2022-07-25T23:11:16.632Z,20.62
2022-07-25T23:13:43.721Z,20.56
2022-07-25T23:16:10.884Z,20.45
2022-07-25T23:18:38.364Z,20.33
2022-07-25T23:21:05.838Z,20.32
2022-07-25T23:23:32.935Z,20.31
2022-07-25T23:26:00.175Z,19.99
2022-07-25T23:28:27.245Z,20.22
2022-07-25T23:30:54.289Z,20.19
2022-07-25T23:33:25.512Z,20.26
2022-07-25T23:35:54.132Z,20.25
2022-07-25T23:38:21.798Z,20.20
2022-07-25T23:40:49.489Z,20.09
2022-07-25T23:43:31.915Z,20.28
2022-07-25T23:46:03.850Z,20.31
2022-07-25T23:48:33.614Z,20.51
2022-07-25T23:51:01.090Z,20.46
2022-07-25T23:53:28.416Z,20.31
2022-07-25T23:55:55.463Z,20.65
2022-07-25T23:58:22.699Z,20.38
